createdAt,value
2022-10-25T00:01:29.133Z,11.82
2022-10-25T00:03:57.761Z,11.27
2022-10-25T00:06:26.484Z,11.10
2022-10-25T00:08:54.887Z,11.65
2022-10-25T00:11:26.021Z,12.05
2022-10-25T00:13:56.938Z,14.07
2022-10-25T00:16:31.503Z,10.48
2022-10-25T00:19:00.098Z,10.30
2022-10-25T00:21:28.201Z,12.57
2022-10-25T00:23:56.146Z,10.73
2022-10-25T00:26:24.326Z,12.73
2022-10-25T00:28:55.461Z,12.43
2022-10-25T00:31:24.465Z,11.75
2022-10-25T00:33:52.554Z,12.85
2022-10-25T00:36:23.684Z,10.50
2022-10-25T00:38:53.143Z,11.23
2022-10-25T00:41:25.839Z,12.23
2022-10-25T00:43:56.564Z,13.75
2022-10-25T00:46:31.676Z,14.38
2022-10-25T00:49:13.189Z,14.88
2022-10-25T00:52:09.785Z,13.20
2022-10-25T00:54:45.284Z,15.05
2022-10-25T00:57:17.609Z,18.30
2022-10-25T00:59:47.542Z,17.83
2022-10-25T01:02:22.119Z,18.23
2022-10-25T01:04:53.431Z,18.92
2022-10-25T01:07:21.746Z,18.10
2022-10-25T01:09:51.602Z,18.30
2022-10-25T01:12:19.832Z,17.63
2022-10-25T01:14:50.957Z,16.23
2022-10-25T01:17:35.268Z,13.77
2022-10-25T01:20:40.735Z,13.43
2022-10-25T01:23:38.711Z,12.98
2022-10-25T01:26:48.694Z,13.50
2022-10-25T01:29:28.685Z,10.55
2022-10-25T01:32:06.999Z,11.18
2022-10-25T01:34:48.201Z,12.77
2022-10-25T01:37:35.177Z,11.88
2022-10-25T01:40:06.006Z,11.85
2022-10-25T01:42:49.718Z,10.93
2022-10-25T01:45:36.907Z,12.15
2022-10-25T01:48:17.180Z,12.45
2022-10-25T01:50:47.716Z,11.80
2022-10-25T01:53:16.395Z,11.13
2022-10-25T01:55:54.420Z,13.93
2022-10-25T01:58:37.016Z,11.32
2022-10-25T02:01:23.832Z,12.07
2022-10-25T02:04:08.319Z,10.98
2022-10-25T02:06:45.694Z,12.43
2022-10-25T02:09:41.784Z,12.35
2022-10-25T02:12:19.452Z,10.10
2022-10-25T02:15:09.965Z,10.27
2022-10-25T02:17:49.054Z,12.90
2022-10-25T02:20:20.696Z,11.90
2022-10-25T02:22:50.325Z,12.80
2022-10-25T02:25:19.047Z,11.18
2022-10-25T02:27:48.669Z,11.30
2022-10-25T02:30:17.565Z,10.77
2022-10-25T02:32:46.036Z,11.00
2022-10-25T02:35:19.067Z,10.32
2022-10-25T02:37:48.210Z,10.80
2022-10-25T02:40:17.129Z,10.70
2022-10-25T02:42:45.038Z,10.40
2022-10-25T02:45:14.650Z,12.05
2022-10-25T02:47:42.965Z,12.45
2022-10-25T02:50:11.579Z,12.98
2022-10-25T02:52:39.443Z,12.35
2022-10-25T02:55:08.355Z,14.05
2022-10-25T02:57:38.392Z,11.75
2022-10-25T03:00:08.782Z,14.10
2022-10-25T03:02:37.644Z,11.57
2022-10-25T03:05:06.292Z,10.50
2022-10-25T03:07:34.606Z,11.90
2022-10-25T03:10:03.309Z,13.05
2022-10-25T03:12:31.358Z,13.73
2022-10-25T03:14:59.900Z,15.15
2022-10-25T03:17:27.875Z,15.00
2022-10-25T03:19:56.300Z,14.65
2022-10-25T03:22:24.525Z,14.90
2022-10-25T03:24:52.542Z,14.45
2022-10-25T03:27:21.054Z,12.50
2022-10-25T03:29:48.905Z,11.82
2022-10-25T03:32:17.335Z,9.88
2022-10-25T03:34:45.229Z,12.70
2022-10-25T03:37:13.745Z,14.23
2022-10-25T03:39:42.250Z,14.13
2022-10-25T03:42:10.155Z,16.10
2022-10-25T03:44:38.994Z,14.77
2022-10-25T03:47:07.438Z,13.98
2022-10-25T03:49:35.411Z,14.10
2022-10-25T03:52:06.278Z,14.38
2022-10-25T03:54:34.709Z,17.60
2022-10-25T03:57:02.832Z,16.08
2022-10-25T03:59:31.475Z,14.82
2022-10-25T04:02:00.442Z,13.88
2022-10-25T04:04:28.969Z,12.88
2022-10-25T04:06:57.496Z,11.95
2022-10-25T04:09:26.013Z,12.40
2022-10-25T04:11:53.929Z,16.40
2022-10-25T04:14:22.639Z,17.00
2022-10-25T04:16:50.589Z,16.08
2022-10-25T04:19:18.706Z,13.55
2022-10-25T04:21:47.759Z,12.57
2022-10-25T04:24:16.556Z,13.20
2022-10-25T04:26:44.929Z,9.43
2022-10-25T04:29:13.325Z,10.82
2022-10-25T04:31:43.074Z,10.73
2022-10-25T04:34:11.414Z,9.13
2022-10-25T04:36:40.008Z,8.38
2022-10-25T04:39:07.981Z,8.85
2022-10-25T04:41:36.445Z,9.88
2022-10-25T04:44:04.966Z,9.52
2022-10-25T04:46:32.973Z,10.35
2022-10-25T04:49:01.495Z,18.48
2022-10-25T04:51:30.021Z,15.63
2022-10-25T04:53:58.503Z,13.30
2022-10-25T04:56:28.785Z,12.57
2022-10-25T04:58:58.814Z,11.15
2022-10-25T05:01:27.483Z,11.55
2022-10-25T05:03:55.912Z,11.73
2022-10-25T05:06:27.663Z,12.70
2022-10-25T05:08:55.791Z,13.48
2022-10-25T05:11:25.568Z,14.00
2022-10-25T05:13:54.621Z,16.00
2022-10-25T05:16:25.075Z,14.55
2022-10-25T05:18:55.634Z,15.88
2022-10-25T05:21:30.824Z,14.63
2022-10-25T05:24:02.002Z,13.80
2022-10-25T05:26:31.973Z,11.18
2022-10-25T05:29:01.911Z,13.60
2022-10-25T05:31:31.637Z,11.32
2022-10-25T05:34:01.817Z,13.50
2022-10-25T05:36:29.860Z,11.18
2022-10-25T05:38:59.457Z,12.80
2022-10-25T05:41:30.653Z,12.05
2022-10-25T05:44:01.410Z,11.52
2022-10-25T05:46:29.348Z,13.00
2022-10-25T05:48:59.434Z,12.57
2022-10-25T05:51:35.861Z,12.15
2022-10-25T05:54:15.187Z,11.27
2022-10-25T05:56:44.491Z,9.93
2022-10-25T05:59:14.590Z,9.88
2022-10-25T06:01:46.970Z,9.40
2022-10-25T06:04:16.807Z,8.43
2022-10-25T06:06:47.509Z,10.50
2022-10-25T06:09:16.374Z,9.00
2022-10-25T06:11:44.939Z,7.80
2022-10-25T06:14:13.149Z,8.88
2022-10-25T06:16:41.045Z,10.20
2022-10-25T06:19:10.038Z,9.80
2022-10-25T06:21:38.002Z,7.63
2022-10-25T06:24:07.003Z,7.78
2022-10-25T06:26:35.420Z,7.55
2022-10-25T06:29:05.252Z,7.55
2022-10-25T06:31:33.680Z,7.30
2022-10-25T06:34:02.729Z,7.78
2022-10-25T06:36:31.530Z,7.88
2022-10-25T06:39:05.851Z,6.85
2022-10-25T06:41:37.313Z,7.18
2022-10-25T06:44:07.604Z,7.13
2022-10-25T06:47:04.455Z,6.63
2022-10-25T06:49:27.236Z,6.25
2022-10-25T06:51:55.326Z,7.05
2022-10-25T06:54:25.836Z,6.93
2022-10-25T06:56:54.826Z,6.90
2022-10-25T06:59:23.719Z,7.43
2022-10-25T07:01:52.744Z,6.55
2022-10-25T07:04:21.059Z,7.07
2022-10-25T07:06:52.752Z,7.03
2022-10-25T07:09:24.026Z,8.32
2022-10-25T07:11:52.225Z,6.75
2022-10-25T07:14:21.700Z,8.10
2022-10-25T07:16:49.791Z,7.13
2022-10-25T07:19:18.170Z,7.38
2022-10-25T07:21:46.405Z,6.82
2022-10-25T07:24:14.799Z,6.45
2022-10-25T07:26:43.411Z,7.15
2022-10-25T07:29:11.418Z,8.07
2022-10-25T07:31:44.498Z,8.63
2022-10-25T07:34:14.568Z,8.32
2022-10-25T07:36:42.539Z,9.02
2022-10-25T07:39:11.036Z,9.20
2022-10-25T07:41:39.096Z,8.80
2022-10-25T07:44:09.531Z,8.73
2022-10-25T07:46:40.697Z,9.02
2022-10-25T07:49:09.070Z,8.95
2022-10-25T07:51:37.689Z,9.63
2022-10-25T07:54:06.408Z,9.27
2022-10-25T07:56:34.408Z,8.85
2022-10-25T07:59:02.312Z,9.32
2022-10-25T08:01:30.650Z,8.30
2022-10-25T08:03:58.697Z,8.57
2022-10-25T08:06:27.749Z,8.07
2022-10-25T08:08:55.810Z,7.70
2022-10-25T08:11:23.823Z,7.40
2022-10-25T08:13:51.831Z,7.72
2022-10-25T08:16:20.393Z,8.02
2022-10-25T08:18:48.930Z,8.13
2022-10-25T08:21:42.515Z,8.23
2022-10-25T08:24:10.694Z,7.50
2022-10-25T08:26:38.542Z,7.95
2022-10-25T08:29:06.469Z,7.35
2022-10-25T08:31:34.499Z,7.90
2022-10-25T08:34:02.414Z,8.20
2022-10-25T08:36:30.368Z,7.82
2022-10-25T08:38:58.260Z,6.68
2022-10-25T08:41:38.938Z,7.38
2022-10-25T08:44:24.138Z,6.90
2022-10-25T08:47:12.889Z,8.02
2022-10-25T08:50:06.192Z,6.63
2022-10-25T08:53:00.780Z,6.43
2022-10-25T08:55:44.589Z,6.90
2022-10-25T08:58:26.835Z,7.53
2022-10-25T09:00:56.355Z,8.02
2022-10-25T09:03:26.334Z,7.50
2022-10-25T09:06:06.245Z,7.93
2022-10-25T09:08:53.399Z,9.13
2022-10-25T09:11:27.087Z,7.57
2022-10-25T09:14:08.375Z,7.75
2022-10-25T09:16:47.035Z,6.78
2022-10-25T09:19:23.730Z,7.53
2022-10-25T09:22:00.558Z,6.43
2022-10-25T09:24:43.755Z,6.43
2022-10-25T09:27:46.649Z,8.13
2022-10-25T09:30:14.935Z,7.82
2022-10-25T09:32:52.909Z,7.25
2022-10-25T09:35:53.645Z,7.78
2022-10-25T09:38:27.883Z,7.90
2022-10-25T09:41:02.649Z,8.25
2022-10-25T09:44:00.606Z,8.75
2022-10-25T09:46:34.976Z,9.27
2022-10-25T09:49:08.645Z,7.70
2022-10-25T09:51:52.013Z,7.80
2022-10-25T09:54:28.878Z,7.75
2022-10-25T09:56:56.914Z,7.82
2022-10-25T09:59:27.853Z,7.65
2022-10-25T10:01:56.112Z,8.85
2022-10-25T10:04:39.540Z,9.40
2022-10-25T10:07:16.239Z,7.80
2022-10-25T10:09:46.199Z,8.45
2022-10-25T10:12:24.323Z,7.85
2022-10-25T10:15:00.688Z,8.80
2022-10-25T10:17:30.798Z,8.43
2022-10-25T10:20:15.338Z,8.35
2022-10-25T10:22:53.549Z,8.57
2022-10-25T10:25:27.309Z,8.40
2022-10-25T10:27:58.191Z,8.77
2022-10-25T10:30:31.374Z,8.57
2022-10-25T10:33:03.344Z,8.80
2022-10-25T10:35:37.069Z,8.63
2022-10-25T10:38:26.665Z,10.85
2022-10-25T10:41:30.835Z,8.98
2022-10-25T10:44:13.451Z,9.43
2022-10-25T10:46:49.256Z,8.88
2022-10-25T10:49:17.645Z,9.20
2022-10-25T10:51:46.850Z,9.52
2022-10-25T10:54:38.316Z,8.70
2022-10-25T10:57:21.106Z,10.10
2022-10-25T10:59:57.117Z,8.27
2022-10-25T11:02:40.071Z,9.60
2022-10-25T11:05:26.605Z,9.93
2022-10-25T11:08:13.625Z,9.73
2022-10-25T11:10:41.503Z,9.38
2022-10-25T11:13:21.227Z,10.30
2022-10-25T11:16:07.476Z,9.38
2022-10-25T11:18:55.642Z,10.25
2022-10-25T11:21:42.650Z,9.15
2022-10-25T11:24:35.004Z,10.18
2022-10-25T11:27:15.998Z,9.37
2022-10-25T11:29:58.019Z,9.27
2022-10-25T11:32:46.407Z,10.38
2022-10-25T11:35:26.288Z,10.10
2022-10-25T11:38:07.552Z,9.43
2022-10-25T11:40:48.136Z,9.30
2022-10-25T11:43:16.316Z,8.63
2022-10-25T11:45:47.048Z,9.25
2022-10-25T11:48:20.361Z,8.68
2022-10-25T11:51:10.369Z,8.20
2022-10-25T11:53:50.317Z,8.55
2022-10-25T11:56:44.929Z,8.75
2022-10-25T11:59:49.381Z,9.48
2022-10-25T12:02:23.414Z,9.38
2022-10-25T12:05:02.483Z,9.10
2022-10-25T12:07:34.052Z,9.57
2022-10-25T12:10:04.819Z,8.75
2022-10-25T12:12:53.807Z,9.68
2022-10-25T12:15:41.447Z,8.75
2022-10-25T12:18:25.281Z,9.55
2022-10-25T12:20:56.167Z,8.63
2022-10-25T12:23:26.622Z,7.57
2022-10-25T12:26:02.290Z,8.10
2022-10-25T12:28:44.146Z,8.13
2022-10-25T12:31:20.717Z,9.27
2022-10-25T12:34:11.655Z,8.55
2022-10-25T12:37:11.999Z,8.48
2022-10-25T12:39:46.760Z,9.43
2022-10-25T12:42:22.877Z,9.18
2022-10-25T12:45:24.890Z,10.25
2022-10-25T12:48:17.777Z,9.60
2022-10-25T12:51:18.840Z,9.20
2022-10-25T12:54:23.106Z,9.50
2022-10-25T12:56:51.301Z,11.05
2022-10-25T12:59:43.976Z,9.05
2022-10-25T13:02:20.341Z,9.32
2022-10-25T13:05:03.058Z,9.50
2022-10-25T13:07:34.008Z,11.15
2022-10-25T13:10:18.194Z,9.80
2022-10-25T13:13:05.121Z,9.75
2022-10-25T13:15:53.118Z,10.77
2022-10-25T13:18:47.967Z,10.00
2022-10-25T13:21:53.408Z,9.98
2022-10-25T13:24:43.682Z,10.38
2022-10-25T13:27:18.973Z,9.90
2022-10-25T13:30:01.725Z,11.43
2022-10-25T13:32:39.721Z,11.77
2022-10-25T13:35:19.959Z,11.10
2022-10-25T13:37:54.511Z,10.82
2022-10-25T13:40:28.088Z,10.50
2022-10-25T13:43:00.451Z,10.63
2022-10-25T13:45:46.488Z,9.48
2022-10-25T13:48:14.375Z,10.40
2022-10-25T13:50:52.487Z,10.02
2022-10-25T13:53:24.714Z,9.88
2022-10-25T13:56:04.648Z,11.32
2022-10-25T13:58:33.916Z,10.43
2022-10-25T14:01:16.912Z,10.10
2022-10-25T14:04:03.728Z,9.90
2022-10-25T14:06:49.750Z,11.57
2022-10-25T14:09:26.667Z,9.65
2022-10-25T14:12:07.607Z,9.60
2022-10-25T14:15:02.513Z,11.27
2022-10-25T14:17:43.241Z,10.27
2022-10-25T14:20:24.118Z,9.88
2022-10-25T14:23:02.150Z,11.68
2022-10-25T14:25:49.048Z,10.75
2022-10-25T14:28:23.576Z,10.15
2022-10-25T14:30:57.283Z,10.70
2022-10-25T14:33:29.166Z,10.52
2022-10-25T14:36:06.460Z,11.13
2022-10-25T14:38:59.168Z,11.32
2022-10-25T14:41:36.623Z,11.43
2022-10-25T14:44:28.151Z,10.75
2022-10-25T14:46:57.687Z,10.70
2022-10-25T14:49:26.942Z,10.65
2022-10-25T14:52:00.517Z,10.50
2022-10-25T14:54:34.597Z,11.13
2022-10-25T14:57:09.039Z,11.75
2022-10-25T14:59:43.194Z,11.82
2022-10-25T15:02:26.063Z,11.55
2022-10-25T15:05:00.247Z,10.85
2022-10-25T15:07:40.344Z,11.52
2022-10-25T15:10:34.680Z,12.20
2022-10-25T15:13:22.208Z,12.55
2022-10-25T15:15:51.897Z,11.63
2022-10-25T15:18:34.267Z,12.50
2022-10-25T15:21:05.527Z,12.63
2022-10-25T15:23:34.857Z,12.25
2022-10-25T15:26:27.993Z,12.85
2022-10-25T15:28:59.048Z,12.55
2022-10-25T15:31:29.624Z,11.65
2022-10-25T15:34:02.765Z,12.65
2022-10-25T15:36:33.440Z,12.05
2022-10-25T15:39:10.421Z,13.73
2022-10-25T15:41:40.819Z,13.38
2022-10-25T15:44:08.966Z,13.02
2022-10-25T15:46:38.307Z,12.88
2022-10-25T15:49:08.693Z,12.75
2022-10-25T15:51:40.554Z,13.93
2022-10-25T15:54:35.020Z,13.10
2022-10-25T15:57:03.749Z,16.33
2022-10-25T15:59:31.710Z,15.77
2022-10-25T16:01:59.806Z,14.40
2022-10-25T16:04:27.981Z,14.95
2022-10-25T16:06:56.539Z,15.57
2022-10-25T16:09:24.967Z,14.95
2022-10-25T16:11:54.966Z,14.48
2022-10-25T16:14:27.142Z,14.93
2022-10-25T16:16:58.334Z,14.45
2022-10-25T16:19:28.460Z,16.02
2022-10-25T16:21:56.433Z,15.82
2022-10-25T16:24:24.630Z,15.82
2022-10-25T16:26:53.170Z,19.25
2022-10-25T16:29:24.757Z,25.23
2022-10-25T16:31:54.200Z,22.58
2022-10-25T16:34:22.608Z,21.98
2022-10-25T16:36:52.542Z,26.75
2022-10-25T16:39:45.628Z,22.60
2022-10-25T16:42:34.459Z,24.23
2022-10-25T16:45:12.108Z,26.73
2022-10-25T16:47:41.279Z,25.52
2022-10-25T16:50:09.885Z,25.80
2022-10-25T16:52:37.935Z,24.98
2022-10-25T16:55:08.943Z,23.85
2022-10-25T16:57:36.989Z,26.50
2022-10-25T17:00:05.511Z,24.30
2022-10-25T17:02:33.628Z,24.35
2022-10-25T17:05:02.110Z,25.33
2022-10-25T17:07:31.105Z,26.40
2022-10-25T17:09:59.816Z,25.35
2022-10-25T17:12:27.831Z,29.17
2022-10-25T17:14:55.800Z,30.67
2022-10-25T17:17:24.492Z,26.95
2022-10-25T17:19:53.209Z,21.88
2022-10-25T17:22:22.577Z,20.58
2022-10-25T17:24:50.670Z,22.05
2022-10-25T17:27:19.231Z,25.67
2022-10-25T17:29:47.216Z,28.45
2022-10-25T17:32:15.187Z,27.75
2022-10-25T17:34:43.203Z,24.25
2022-10-25T17:37:11.145Z,23.20
2022-10-25T17:39:39.072Z,22.80
2022-10-25T17:42:07.453Z,22.45
2022-10-25T17:44:35.595Z,25.70
2022-10-25T17:47:06.075Z,25.63
2022-10-25T17:49:34.383Z,25.98
2022-10-25T17:52:02.847Z,25.02
2022-10-25T17:54:30.877Z,24.23
2022-10-25T17:57:01.254Z,21.52
2022-10-25T17:59:29.308Z,21.58
2022-10-25T18:01:57.929Z,22.70
2022-10-25T18:04:26.327Z,19.85
2022-10-25T18:06:54.439Z,21.58
2022-10-25T18:09:22.439Z,21.83
2022-10-25T18:11:50.508Z,19.90
2022-10-25T18:14:18.907Z,21.55
2022-10-25T18:16:47.315Z,20.35
2022-10-25T18:19:15.941Z,21.38
2022-10-25T18:21:43.836Z,22.60
2022-10-25T18:24:13.205Z,20.75
2022-10-25T18:26:41.270Z,21.27
2022-10-25T18:29:13.351Z,20.67
2022-10-25T18:31:41.587Z,21.83
2022-10-25T18:34:10.025Z,24.80
2022-10-25T18:36:38.469Z,24.10
2022-10-25T18:39:06.671Z,27.00
2022-10-25T18:41:34.999Z,26.80
2022-10-25T18:44:03.292Z,23.05
2022-10-25T18:46:32.745Z,25.58
2022-10-25T18:49:00.772Z,23.48
2022-10-25T18:51:30.295Z,23.85
2022-10-25T18:54:01.045Z,23.08
2022-10-25T18:56:30.096Z,23.90
2022-10-25T18:58:59.277Z,25.02
2022-10-25T19:01:32.665Z,23.80
2022-10-25T19:04:03.953Z,26.80
2022-10-25T19:06:33.516Z,22.45
2022-10-25T19:09:03.386Z,20.80
2022-10-25T19:11:33.466Z,21.50
2022-10-25T19:14:03.117Z,22.05
2022-10-25T19:16:31.308Z,20.73
2022-10-25T19:19:07.306Z,20.65
2022-10-25T19:21:37.046Z,20.65
2022-10-25T19:24:05.968Z,22.45
2022-10-25T19:26:34.575Z,24.40
2022-10-25T19:29:02.658Z,22.55
2022-10-25T19:31:31.248Z,22.83
2022-10-25T19:34:02.989Z,21.85
2022-10-25T19:36:31.219Z,22.13
2022-10-25T19:39:01.487Z,23.40
2022-10-25T19:41:30.822Z,22.50
2022-10-25T19:43:59.359Z,22.20
2022-10-25T19:46:31.044Z,21.05
2022-10-25T19:49:00.583Z,20.17
2022-10-25T19:51:28.993Z,21.17
2022-10-25T19:53:56.989Z,22.02
2022-10-25T19:56:25.114Z,21.33
2022-10-25T19:58:53.110Z,20.55
2022-10-25T20:01:24.346Z,20.70
2022-10-25T20:03:57.700Z,22.25
2022-10-25T20:06:30.901Z,22.55
2022-10-25T20:09:01.296Z,21.77
2022-10-25T20:11:29.733Z,21.42
2022-10-25T20:14:01.123Z,20.55
2022-10-25T20:16:30.854Z,21.70
2022-10-25T20:19:02.671Z,20.10
2022-10-25T20:21:34.349Z,21.52
2022-10-25T20:24:05.909Z,20.55
2022-10-25T20:26:37.266Z,21.02
2022-10-25T20:29:20.189Z,20.67
2022-10-25T20:31:50.940Z,21.52
2022-10-25T20:34:20.058Z,21.42
2022-10-25T20:36:49.074Z,21.40
2022-10-25T20:39:17.494Z,22.15
2022-10-25T20:41:46.127Z,24.73
2022-10-25T20:44:14.844Z,20.90
2022-10-25T20:46:43.885Z,22.20
2022-10-25T20:49:12.198Z,21.15
2022-10-25T20:51:40.555Z,22.10
2022-10-25T20:54:10.058Z,19.92
2022-10-25T20:56:39.678Z,19.13
2022-10-25T20:59:08.551Z,18.55
2022-10-25T21:01:37.701Z,19.13
2022-10-25T21:04:06.059Z,20.55
2022-10-25T21:06:34.507Z,19.25
2022-10-25T21:09:02.557Z,21.73
2022-10-25T21:11:30.514Z,22.10
2022-10-25T21:13:59.359Z,22.00
2022-10-25T21:16:28.327Z,22.33
2022-10-25T21:18:56.649Z,22.45
2022-10-25T21:21:24.713Z,25.05
2022-10-25T21:23:56.323Z,24.42
2022-10-25T21:26:24.965Z,25.77
2022-10-25T21:28:52.895Z,22.75
2022-10-25T21:31:21.155Z,19.35
2022-10-25T21:33:50.302Z,19.23
2022-10-25T21:36:21.199Z,18.83
2022-10-25T21:38:50.041Z,20.63
2022-10-25T21:41:23.413Z,19.70
2022-10-25T21:43:52.223Z,20.17
2022-10-25T21:46:22.087Z,21.50
2022-10-25T21:48:53.151Z,21.20
2022-10-25T21:51:24.371Z,20.73
2022-10-25T21:53:54.947Z,20.50
2022-10-25T21:56:30.715Z,19.55
2022-10-25T21:59:00.784Z,21.40
2022-10-25T22:01:30.381Z,19.88
2022-10-25T22:03:59.104Z,19.02
2022-10-25T22:06:28.346Z,18.95
2022-10-25T22:08:56.941Z,17.02
2022-10-25T22:11:35.142Z,16.15
2022-10-25T22:14:05.955Z,16.83
2022-10-25T22:16:34.859Z,17.02
2022-10-25T22:19:05.429Z,17.85
2022-10-25T22:21:37.129Z,18.25
2022-10-25T22:24:06.733Z,18.65
2022-10-25T22:26:35.871Z,17.27
2022-10-25T22:29:04.784Z,18.67
2022-10-25T22:31:33.464Z,18.98
2022-10-25T22:34:05.424Z,19.48
2022-10-25T22:36:36.022Z,18.52
2022-10-25T22:39:05.299Z,18.52
2022-10-25T22:41:34.335Z,17.75
2022-10-25T22:44:03.058Z,20.52
2022-10-25T22:46:36.191Z,19.05
2022-10-25T22:49:08.993Z,17.20
2022-10-25T22:51:37.934Z,18.90
2022-10-25T22:54:07.196Z,16.92
2022-10-25T22:56:35.362Z,15.95
2022-10-25T22:59:05.653Z,15.30
2022-10-25T23:01:36.385Z,16.00
2022-10-25T23:04:07.035Z,17.77
2022-10-25T23:06:38.171Z,18.48
2022-10-25T23:09:09.282Z,16.58
2022-10-25T23:11:38.995Z,17.23
2022-10-25T23:14:13.382Z,15.95
2022-10-25T23:16:45.653Z,14.82
2022-10-25T23:19:14.410Z,17.83
2022-10-25T23:21:42.799Z,16.08
2022-10-25T23:24:11.688Z,16.52
2022-10-25T23:26:39.998Z,17.30
2022-10-25T23:29:11.351Z,16.15
2022-10-25T23:31:39.554Z,14.48
2022-10-25T23:34:07.756Z,16.67
2022-10-25T23:36:39.229Z,15.60
2022-10-25T23:39:08.066Z,15.50
2022-10-25T23:41:36.082Z,16.17
2022-10-25T23:44:04.193Z,16.23
2022-10-25T23:46:32.040Z,15.32
2022-10-25T23:49:00.136Z,15.77
2022-10-25T23:51:28.054Z,15.90
2022-10-25T23:53:56.173Z,14.73
2022-10-25T23:56:24.506Z,14.32
2022-10-25T23:58:53.840Z,14.35
